createdAt,value
2018-10-17T00:02:41.860Z,3.83
2018-10-17T00:07:46.061Z,4.07
2018-10-17T00:12:50.246Z,3.97
2018-10-17T00:17:54.440Z,4.30
2018-10-17T00:22:58.758Z,4.13
2018-10-17T00:28:03.497Z,4.00
2018-10-17T00:33:07.769Z,3.60
2018-10-17T00:38:11.915Z,3.30
2018-10-17T00:43:16.172Z,3.20
2018-10-17T00:48:20.405Z,2.70
2018-10-17T00:53:24.631Z,3.43
2018-10-17T00:58:28.812Z,3.90
2018-10-17T01:03:33.163Z,3.90
2018-10-17T01:08:37.455Z,4.17
2018-10-17T01:13:41.633Z,4.10
2018-10-17T01:18:45.958Z,4.10
2018-10-17T01:23:50.227Z,3.73
2018-10-17T01:28:54.479Z,4.37
2018-10-17T01:33:58.689Z,4.27
2018-10-17T01:39:03.123Z,4.40
2018-10-17T01:44:07.632Z,4.20
2018-10-17T01:49:11.911Z,4.10
2018-10-17T01:54:16.065Z,4.33
2018-10-17T01:59:20.732Z,4.07
2018-10-17T02:04:24.917Z,4.47
2018-10-17T02:09:29.412Z,4.10
2018-10-17T02:14:33.624Z,3.80
2018-10-17T02:19:37.999Z,4.30
2018-10-17T02:24:42.183Z,3.83
2018-10-17T02:29:46.417Z,4.60
2018-10-17T02:34:55.827Z,4.67
2018-10-17T02:40:00.087Z,4.40
2018-10-17T02:45:04.533Z,3.97
2018-10-17T02:50:09.877Z,3.50
2018-10-17T02:55:14.109Z,3.70
2018-10-17T03:00:18.264Z,3.90
2018-10-17T03:05:22.621Z,4.23
2018-10-17T03:10:26.859Z,4.20
2018-10-17T03:15:31.065Z,4.00
2018-10-17T03:20:35.397Z,4.27
2018-10-17T03:25:40.023Z,4.63
2018-10-17T03:30:44.195Z,4.00
2018-10-17T03:35:48.482Z,4.70
2018-10-17T03:40:52.655Z,4.10
2018-10-17T03:45:56.852Z,4.13
2018-10-17T03:51:01.079Z,4.37
2018-10-17T03:56:05.473Z,4.07
2018-10-17T04:01:09.743Z,4.17
2018-10-17T04:06:14.029Z,3.73
2018-10-17T04:11:18.739Z,4.37
2018-10-17T04:16:22.909Z,4.33
2018-10-17T04:21:27.199Z,5.20
2018-10-17T04:26:31.723Z,5.13
2018-10-17T04:31:35.924Z,4.70
2018-10-17T04:36:40.141Z,4.47
2018-10-17T04:41:44.467Z,4.70
2018-10-17T04:46:48.636Z,4.37
2018-10-17T04:51:52.822Z,4.67
2018-10-17T04:56:57.319Z,4.23
2018-10-17T05:02:01.479Z,4.13
2018-10-17T05:07:05.819Z,4.53
2018-10-17T05:12:09.962Z,4.83
2018-10-17T05:17:14.376Z,4.57
2018-10-17T05:22:18.513Z,4.70
2018-10-17T05:27:22.743Z,4.87
2018-10-17T05:32:27.044Z,4.70
2018-10-17T05:37:31.501Z,4.83
2018-10-17T05:42:35.749Z,4.50
2018-10-17T05:47:40.432Z,4.50
2018-10-17T05:52:44.882Z,4.23
2018-10-17T05:57:49.197Z,4.17
2018-10-17T06:02:53.414Z,4.80
2018-10-17T06:07:57.759Z,5.00
2018-10-17T06:13:02.128Z,4.87
2018-10-17T06:18:06.251Z,5.17
2018-10-17T06:23:10.734Z,4.50
2018-10-17T06:28:15.049Z,5.17
2018-10-17T06:33:19.187Z,4.93
2018-10-17T06:38:23.853Z,4.77
2018-10-17T06:43:28.207Z,5.03
2018-10-17T06:48:32.412Z,4.63
2018-10-17T06:53:36.617Z,4.87
2018-10-17T06:58:41.053Z,5.40
2018-10-17T07:03:45.576Z,5.37
2018-10-17T07:08:50.230Z,4.57
2018-10-17T07:13:54.602Z,5.03
2018-10-17T07:18:58.805Z,5.40
2018-10-17T07:24:03.245Z,4.30
2018-10-17T07:29:07.441Z,5.07
2018-10-17T07:34:11.615Z,5.17
2018-10-17T07:39:16.126Z,4.67
2018-10-17T07:44:20.375Z,4.43
2018-10-17T07:49:24.609Z,5.33
2018-10-17T07:54:28.893Z,5.63
2018-10-17T07:59:33.414Z,5.23
2018-10-17T08:04:37.496Z,5.60
2018-10-17T08:09:41.697Z,5.43
2018-10-17T08:14:45.905Z,5.53
2018-10-17T08:19:50.541Z,4.93
2018-10-17T08:24:54.830Z,4.93
2018-10-17T08:29:59.279Z,4.40
2018-10-17T08:35:03.624Z,4.87
2018-10-17T08:40:07.854Z,5.37
2018-10-17T08:45:12.256Z,5.27
2018-10-17T08:50:16.491Z,4.73
2018-10-17T08:55:20.653Z,4.33
2018-10-17T09:00:25.187Z,5.27
2018-10-17T09:05:29.525Z,5.23
2018-10-17T09:10:33.915Z,5.20
2018-10-17T09:15:38.543Z,5.10
2018-10-17T09:20:42.899Z,6.13
2018-10-17T09:25:47.099Z,5.97
2018-10-17T09:30:51.242Z,5.83
2018-10-17T09:35:55.519Z,6.27
2018-10-17T09:40:59.888Z,5.57
2018-10-17T09:46:04.222Z,6.00
2018-10-17T09:51:08.511Z,7.93
2018-10-17T09:56:12.981Z,7.27
2018-10-17T10:01:22.430Z,8.30
2018-10-17T10:06:26.726Z,8.07
2018-10-17T10:11:31.149Z,9.10
2018-10-17T10:16:35.437Z,9.43
2018-10-17T10:21:39.692Z,8.03
2018-10-17T10:26:43.874Z,8.80
2018-10-17T10:31:48.596Z,8.83
2018-10-17T10:36:52.824Z,8.10
2018-10-17T10:41:57.157Z,9.13
2018-10-17T10:47:01.604Z,8.23
2018-10-17T10:52:06.031Z,9.00
2018-10-17T10:57:10.363Z,8.97
2018-10-17T11:02:14.649Z,9.17
2018-10-17T11:07:20.732Z,9.60
2018-10-17T11:12:24.897Z,9.07
2018-10-17T11:17:29.274Z,10.33
2018-10-17T11:22:33.517Z,10.20
2018-10-17T11:27:37.808Z,9.77
2018-10-17T11:32:42.138Z,9.47
2018-10-17T11:37:46.422Z,10.73
2018-10-17T11:42:50.573Z,10.03
2018-10-17T11:47:54.872Z,11.47
2018-10-17T11:52:59.156Z,10.47
2018-10-17T11:58:03.404Z,11.10
2018-10-17T12:03:07.653Z,10.40
2018-10-17T12:08:11.714Z,11.10
2018-10-17T12:13:15.878Z,10.97
2018-10-17T12:18:20.106Z,12.23
2018-10-17T12:23:24.284Z,11.10
2018-10-17T12:28:28.563Z,12.23
2018-10-17T12:33:33.254Z,11.83
2018-10-17T12:38:37.543Z,12.60
2018-10-17T12:43:41.724Z,10.50
2018-10-17T12:48:45.927Z,11.17
2018-10-17T12:53:50.216Z,11.97
2018-10-17T12:58:54.750Z,11.10
2018-10-17T13:03:59.001Z,11.67
2018-10-17T13:09:03.434Z,14.63
2018-10-17T13:14:07.621Z,16.77
2018-10-17T13:19:11.919Z,16.17
2018-10-17T13:24:16.106Z,18.17
2018-10-17T13:29:20.344Z,17.87
2018-10-17T13:34:24.608Z,17.90
2018-10-17T13:39:28.930Z,20.00
2018-10-17T13:44:33.296Z,19.20
2018-10-17T13:49:37.629Z,19.67
2018-10-17T13:54:41.922Z,18.87
2018-10-17T13:59:46.161Z,18.53
2018-10-17T14:04:50.581Z,15.07
2018-10-17T14:09:55.056Z,15.07
2018-10-17T14:14:59.275Z,16.50
2018-10-17T14:20:03.476Z,14.73
2018-10-17T14:25:07.754Z,14.63
2018-10-17T14:30:12.222Z,14.77
2018-10-17T14:35:16.399Z,15.63
2018-10-17T14:40:20.595Z,15.80
2018-10-17T14:45:24.835Z,15.67
2018-10-17T14:50:29.154Z,15.30
2018-10-17T14:55:33.492Z,13.87
2018-10-17T15:00:37.735Z,15.00
2018-10-17T15:05:41.973Z,14.70
2018-10-17T15:10:46.535Z,12.80
2018-10-17T15:15:50.620Z,14.10
2018-10-17T15:20:55.029Z,14.80
2018-10-17T15:25:58.932Z,12.47
2018-10-17T15:31:03.658Z,13.00
2018-10-17T15:36:08.101Z,13.67
2018-10-17T15:41:12.418Z,12.50
2018-10-17T15:46:16.600Z,13.83
2018-10-17T15:51:20.861Z,13.10
2018-10-17T15:56:25.272Z,12.90
2018-10-17T16:01:30.908Z,12.23
2018-10-17T16:06:35.976Z,11.67
2018-10-17T16:11:40.567Z,13.23
2018-10-17T16:16:44.689Z,13.60
2018-10-17T16:21:49.090Z,13.50
2018-10-17T16:26:53.358Z,14.00
2018-10-17T16:31:57.681Z,13.53
2018-10-17T16:37:01.812Z,13.77
2018-10-17T16:42:06.179Z,14.27
2018-10-17T16:47:10.649Z,13.07
2018-10-17T16:52:14.891Z,13.17
2018-10-17T16:57:19.277Z,13.33
2018-10-17T17:02:23.496Z,13.00
2018-10-17T17:07:27.815Z,13.37
2018-10-17T17:12:32.155Z,14.03
2018-10-17T17:17:36.429Z,13.87
2018-10-17T17:22:41.283Z,13.67
2018-10-17T17:27:45.617Z,13.57
2018-10-17T17:32:50.004Z,13.50
2018-10-17T17:37:54.347Z,13.13
2018-10-17T17:42:58.809Z,12.40
2018-10-17T17:48:03.073Z,13.27
2018-10-17T17:53:07.285Z,12.90
2018-10-17T17:58:11.541Z,14.13
2018-10-17T18:15:08.235Z,14.47
2018-10-17T18:20:12.567Z,12.70
2018-10-17T18:25:16.756Z,11.50
2018-10-17T18:30:21.178Z,11.17
2018-10-17T18:35:26.541Z,11.40
2018-10-17T18:40:32.024Z,11.77
2018-10-17T18:45:36.520Z,11.03
2018-10-17T18:50:41.125Z,11.73
2018-10-17T18:55:45.417Z,11.03
2018-10-17T19:00:50.774Z,11.63
2018-10-17T19:05:56.536Z,11.10
2018-10-17T19:11:01.386Z,12.43
2018-10-17T19:16:06.246Z,11.73
2018-10-17T19:21:11.279Z,12.03
2018-10-17T19:26:16.610Z,11.67
2018-10-17T19:31:22.466Z,11.60
2018-10-17T19:36:28.022Z,11.77
2018-10-17T19:41:32.267Z,10.47
2018-10-17T19:46:36.812Z,10.50
2018-10-17T19:51:43.688Z,10.17
2018-10-17T19:56:48.249Z,10.80
2018-10-17T20:01:52.727Z,9.80
2018-10-17T20:06:57.024Z,10.73
2018-10-17T20:12:01.630Z,10.47
2018-10-17T20:17:06.826Z,10.17
2018-10-17T20:22:11.940Z,10.33
2018-10-17T20:27:16.342Z,11.03
2018-10-17T20:32:20.502Z,10.57
2018-10-17T20:37:24.848Z,9.53
2018-10-17T20:42:29.323Z,10.00
2018-10-17T20:47:33.667Z,10.83
2018-10-17T20:52:38.250Z,10.63
2018-10-17T20:57:42.465Z,9.70
2018-10-17T21:02:46.728Z,10.27
2018-10-17T21:07:50.927Z,10.30
2018-10-17T21:12:55.230Z,10.23
2018-10-17T21:17:59.740Z,10.03
2018-10-17T21:23:03.998Z,10.33
2018-10-17T21:28:08.153Z,10.13
2018-10-17T21:33:12.439Z,9.73
2018-10-17T21:38:17.092Z,9.93
2018-10-17T21:43:21.234Z,9.60
2018-10-17T21:48:25.546Z,10.00
2018-10-17T21:53:29.714Z,9.73
2018-10-17T21:58:33.999Z,10.53
2018-10-17T22:03:38.306Z,10.90
2018-10-17T22:08:42.473Z,10.93
2018-10-17T22:13:46.709Z,10.70
2018-10-17T22:18:50.989Z,10.57
2018-10-17T22:23:55.196Z,11.63
2018-10-17T22:28:59.448Z,10.83
2018-10-17T22:34:03.693Z,10.43
2018-10-17T22:39:12.190Z,10.30
2018-10-17T22:44:16.535Z,10.57
2018-10-17T22:49:20.698Z,10.47
2018-10-17T22:54:24.892Z,10.57
2018-10-17T22:59:29.070Z,10.20
2018-10-17T23:04:33.349Z,11.00
2018-10-17T23:09:37.528Z,11.10
2018-10-17T23:14:41.757Z,10.13
2018-10-17T23:19:46.182Z,10.43
2018-10-17T23:24:50.547Z,10.57
2018-10-17T23:29:54.737Z,10.53
2018-10-17T23:34:59.011Z,10.53
2018-10-17T23:40:03.272Z,11.13
2018-10-17T23:45:07.589Z,10.03
2018-10-17T23:50:11.866Z,10.90
2018-10-17T23:55:16.195Z,11.10
